Haci Arif Kaptan — TCQQ — position and weather

sailwx.info

Track history (hours):
 
Tides and Currents Weather Stations Pressure Air Temp Water Temp Dewpoint Dewpoint Depression Visibility Wind Speed Wind Dir Waves Ship Positions

Haci Arif Kaptan

Last reported at 2016-Jan-31 01:33 UTC. Time now 2016-Feb-06 23:25 UTC.
Position N 40°43' E 029°29'.

Length 130 m; draft 4.5 m.

Type: Cargo ship. MMSI: 271000494.

Date/timePositionNaut miles runAvg speedWind from/ knotsBaromVisibWave heightAir tempDewpointWater temp
2016-Jan-31 01:33N 40°43' E 029°29'0 0.0
2016-Jan-31 00:33N 40°43' E 029°29'0 0.0
2016-Jan-30 23:27N 40°43' E 029°29'0 0.0
2016-Jan-30 22:27N 40°43' E 029°29'0 0.0
2016-Jan-30 21:33N 40°43' E 029°29'0 0.0
2016-Jan-30 20:33N 40°43' E 029°29'0 0.0
2016-Jan-30 19:27N 40°43' E 029°29'0 0.0
2016-Jan-30 18:33N 40°43' E 029°29'0 0.0
2016-Jan-30 10:32N 40°43' E 029°29'0 0.0
2016-Jan-30 09:20N 40°43' E 029°29'0 0.0
2016-Jan-30 08:26N 40°43' E 029°29'0 0.0
2016-Jan-30 07:32N 40°43' E 029°29'0 0.0
2016-Jan-30 06:26N 40°43' E 029°29'0 0.0
2016-Jan-30 05:23N 40°43' E 029°29'0 0.0
2016-Jan-30 04:17N 40°43' E 029°29'0 0.0
2016-Jan-30 03:11N 40°43' E 029°29'0 0.0
2016-Jan-30 02:29N 40°43' E 029°29'0 0.0
2016-Jan-30 01:23N 40°43' E 029°29'0 0.0
2016-Jan-29 21:18N 40°43' E 029°29'0 0.0
2016-Jan-29 19:23N 40°43' E 029°29'0 0.0
2016-Jan-29 17:05N 40°43' E 029°29'0 0.0
2016-Jan-29 15:30N 40°43' E 029°29'0 0.0
2016-Jan-29 14:29N 40°43' E 029°29'0 0.0
2016-Jan-29 13:29N 40°43' E 029°29'0 0.0
2016-Jan-29 11:29N 40°43' E 029°29'0 0.0
2016-Jan-29 10:23N 40°43' E 029°29'0 0.0
2016-Jan-29 09:29N 40°43' E 029°29'0 0.0
2016-Jan-29 08:11N 40°43' E 029°29'1 2.2
2016-Jan-29 07:33N 40°43' E 029°27'5 1.1
2016-Jan-29 03:15N 40°42' E 029°21'0 0.0
2016-Jan-29 02:03N 40°42' E 029°21'0 0.0
2016-Jan-29 00:15N 40°42' E 029°21'0 0.0
2016-Jan-28 23:27N 40°42' E 029°21'0 0.0
2016-Jan-28 22:27N 40°42' E 029°21'0 0.0
2016-Jan-28 20:27N 40°42' E 029°21'0 0.0
2016-Jan-28 19:21N 40°42' E 029°21'0 0.0
2016-Jan-28 18:33N 40°42' E 029°21'0 0.0
2016-Jan-28 16:33N 40°42' E 029°21'0 0.1
2016-Jan-28 15:33N 40°42' E 029°21'6 6.4
2016-Jan-28 14:33N 40°41' E 029°12'10 9.6
2016-Jan-28 13:30N 40°40' E 028°59'  
Track history (hours):
 
Tides and Currents Weather Stations Pressure Air Temp Water Temp Dewpoint Dewpoint Depression Visibility Wind Speed Wind Dir Waves Ship Positions

Haci Arif Kaptan

Last reported at 2016-Jan-31 01:33 UTC. Time now 2016-Feb-06 23:25 UTC.
Position N 40°43' E 029°29'.

Length 130 m; draft 4.5 m.

Type: Cargo ship. MMSI: 271000494.

Date/timePositionNaut miles runAvg speedWind from/ knotsBaromVisibWave heightAir tempDewpointWater temp
2016-Jan-31 01:33N 40°43' E 029°29'0 0.0
2016-Jan-31 00:33N 40°43' E 029°29'0 0.0
2016-Jan-30 23:27N 40°43' E 029°29'0 0.0
2016-Jan-30 22:27N 40°43' E 029°29'0 0.0
2016-Jan-30 21:33N 40°43' E 029°29'0 0.0
2016-Jan-30 20:33N 40°43' E 029°29'0 0.0
2016-Jan-30 19:27N 40°43' E 029°29'0 0.0
2016-Jan-30 18:33N 40°43' E 029°29'0 0.0
2016-Jan-30 10:32N 40°43' E 029°29'0 0.0
2016-Jan-30 09:20N 40°43' E 029°29'0 0.0
2016-Jan-30 08:26N 40°43' E 029°29'0 0.0
2016-Jan-30 07:32N 40°43' E 029°29'0 0.0
2016-Jan-30 06:26N 40°43' E 029°29'0 0.0
2016-Jan-30 05:23N 40°43' E 029°29'0 0.0
2016-Jan-30 04:17N 40°43' E 029°29'0 0.0
2016-Jan-30 03:11N 40°43' E 029°29'0 0.0
2016-Jan-30 02:29N 40°43' E 029°29'0 0.0
2016-Jan-30 01:23N 40°43' E 029°29'0 0.0
2016-Jan-29 21:18N 40°43' E 029°29'0 0.0
2016-Jan-29 19:23N 40°43' E 029°29'0 0.0
2016-Jan-29 17:05N 40°43' E 029°29'0 0.0
2016-Jan-29 15:30N 40°43' E 029°29'0 0.0
2016-Jan-29 14:29N 40°43' E 029°29'0 0.0
2016-Jan-29 13:29N 40°43' E 029°29'0 0.0
2016-Jan-29 11:29N 40°43' E 029°29'0 0.0
2016-Jan-29 10:23N 40°43' E 029°29'0 0.0
2016-Jan-29 09:29N 40°43' E 029°29'0 0.0
2016-Jan-29 08:11N 40°43' E 029°29'1 2.2
2016-Jan-29 07:33N 40°43' E 029°27'5 1.1
2016-Jan-29 03:15N 40°42' E 029°21'0 0.0
2016-Jan-29 02:03N 40°42' E 029°21'0 0.0
2016-Jan-29 00:15N 40°42' E 029°21'0 0.0
2016-Jan-28 23:27N 40°42' E 029°21'0 0.0
2016-Jan-28 22:27N 40°42' E 029°21'0 0.0
2016-Jan-28 20:27N 40°42' E 029°21'0 0.0
2016-Jan-28 19:21N 40°42' E 029°21'0 0.0
2016-Jan-28 18:33N 40°42' E 029°21'0 0.0
2016-Jan-28 16:33N 40°42' E 029°21'0 0.1
2016-Jan-28 15:33N 40°42' E 029°21'6 6.4
2016-Jan-28 14:33N 40°41' E 029°12'10 9.6
2016-Jan-28 13:30N 40°40' E 028°59'  

Dump ship's entire track history